createdAt,value
2022-10-17T00:01:14.010Z,21.09
2022-10-17T00:03:42.807Z,21.14
2022-10-17T00:06:16.075Z,21.20
2022-10-17T00:08:45.517Z,21.25
2022-10-17T00:11:23.545Z,21.31
2022-10-17T00:13:55.280Z,21.37
2022-10-17T00:16:30.731Z,21.43
2022-10-17T00:18:59.063Z,21.49
2022-10-17T00:21:28.117Z,21.55
2022-10-17T00:23:56.702Z,21.62
2022-10-17T00:26:25.144Z,21.69
2022-10-17T00:28:54.131Z,21.75
2022-10-17T00:31:24.225Z,21.82
2022-10-17T00:33:53.625Z,21.89
2022-10-17T00:36:24.838Z,21.95
2022-10-17T00:38:56.640Z,22.00
2022-10-17T00:41:31.400Z,22.06
2022-10-17T00:44:07.602Z,22.09
2022-10-17T00:46:39.167Z,22.15
2022-10-17T00:49:11.315Z,22.21
2022-10-17T00:51:46.626Z,22.24
2022-10-17T00:54:17.360Z,22.28
2022-10-17T00:56:48.042Z,22.34
2022-10-17T00:59:18.968Z,22.40
2022-10-17T01:02:03.263Z,22.47
2022-10-17T01:04:31.765Z,22.52
2022-10-17T01:07:00.130Z,22.59
2022-10-17T01:09:28.952Z,22.65
2022-10-17T01:12:06.212Z,22.72
2022-10-17T01:15:01.045Z,22.80
2022-10-17T01:17:47.527Z,22.86
2022-10-17T01:21:09.306Z,22.94
2022-10-17T01:24:05.100Z,23.00
2022-10-17T01:26:36.327Z,23.07
2022-10-17T01:29:18.075Z,23.12
2022-10-17T01:32:02.539Z,23.20
2022-10-17T01:34:39.558Z,23.25
2022-10-17T01:37:35.288Z,23.32
2022-10-17T01:40:09.980Z,23.40
2022-10-17T01:42:49.958Z,23.46
2022-10-17T01:45:41.509Z,23.52
2022-10-17T01:48:16.562Z,23.58
2022-10-17T01:51:08.775Z,23.63
2022-10-17T01:53:45.942Z,23.72
2022-10-17T01:56:18.135Z,23.78
2022-10-17T01:58:54.224Z,23.84
2022-10-17T02:01:24.911Z,23.89
2022-10-17T02:03:54.790Z,23.95
2022-10-17T02:06:23.175Z,24.02
2022-10-17T02:08:52.848Z,24.10
2022-10-17T02:11:28.838Z,24.18
2022-10-17T02:14:21.229Z,24.25
2022-10-17T02:17:17.890Z,24.34
2022-10-17T02:19:58.805Z,24.41
2022-10-17T02:22:39.304Z,24.46
2022-10-17T02:25:19.954Z,24.54
2022-10-17T02:28:06.607Z,24.59
2022-10-17T02:30:51.363Z,24.68
2022-10-17T02:33:45.443Z,24.74
2022-10-17T02:36:20.258Z,24.82
2022-10-17T02:38:50.307Z,24.87
2022-10-17T02:41:20.731Z,24.95
2022-10-17T02:43:51.720Z,25.01
2022-10-17T02:46:23.137Z,25.05
2022-10-17T02:49:23.774Z,25.13
2022-10-17T02:51:57.644Z,25.17
2022-10-17T02:54:33.724Z,25.23
2022-10-17T02:57:20.497Z,25.33
2022-10-17T02:59:50.576Z,25.39
2022-10-17T03:02:19.524Z,25.44
2022-10-17T03:04:48.959Z,25.50
2022-10-17T03:07:17.554Z,25.57
2022-10-17T03:09:46.069Z,25.66
2022-10-17T03:12:14.370Z,25.69
2022-10-17T03:14:42.723Z,25.75
2022-10-17T03:17:11.091Z,25.81
2022-10-17T03:19:39.524Z,25.85
2022-10-17T03:22:07.849Z,25.89
2022-10-17T03:24:36.170Z,25.96
2022-10-17T03:27:04.844Z,26.02
2022-10-17T03:29:33.207Z,26.07
2022-10-17T03:32:01.529Z,26.13
2022-10-17T03:34:29.847Z,26.16
2022-10-17T03:36:58.190Z,26.24
2022-10-17T03:39:26.574Z,26.30
2022-10-17T03:41:54.918Z,26.36
2022-10-17T03:44:23.299Z,26.39
2022-10-17T03:46:51.628Z,26.44
2022-10-17T03:49:19.940Z,26.49
2022-10-17T03:51:48.253Z,26.58
2022-10-17T03:54:16.632Z,26.63
2022-10-17T03:56:45.061Z,26.68
2022-10-17T03:59:15.755Z,26.73
2022-10-17T04:01:44.520Z,26.77
2022-10-17T04:04:13.712Z,26.79
2022-10-17T04:06:42.178Z,26.84
2022-10-17T04:09:13.178Z,26.87
2022-10-17T04:11:41.602Z,26.92
2022-10-17T04:14:11.978Z,26.97
2022-10-17T04:16:40.841Z,27.03
2022-10-17T04:19:09.163Z,27.08
2022-10-17T04:21:37.568Z,27.14
2022-10-17T04:24:06.362Z,27.19
2022-10-17T04:26:34.656Z,27.23
2022-10-17T04:29:03.002Z,27.25
2022-10-17T04:31:31.405Z,27.30
2022-10-17T04:33:59.738Z,27.36
2022-10-17T04:36:28.111Z,27.40
2022-10-17T04:38:56.395Z,27.45
2022-10-17T04:41:24.849Z,27.48
2022-10-17T04:43:54.183Z,27.52
2022-10-17T04:46:22.549Z,27.55
2022-10-17T04:48:51.140Z,27.58
2022-10-17T04:51:23.056Z,27.63
2022-10-17T04:53:54.231Z,27.66
2022-10-17T04:56:24.997Z,27.73
2022-10-17T04:58:53.944Z,27.75
2022-10-17T05:01:24.706Z,27.80
2022-10-17T05:03:54.400Z,27.83
2022-10-17T05:06:26.762Z,27.88
2022-10-17T05:08:55.515Z,27.95
2022-10-17T05:11:27.832Z,27.97
2022-10-17T05:14:01.809Z,28.02
2022-10-17T05:16:31.065Z,28.05
2022-10-17T05:19:00.703Z,28.08
2022-10-17T05:21:31.087Z,28.13
2022-10-17T05:23:59.656Z,28.18
2022-10-17T05:26:28.064Z,28.23
2022-10-17T05:28:56.479Z,28.28
2022-10-17T05:31:24.903Z,28.30
2022-10-17T05:33:53.306Z,28.35
2022-10-17T05:36:21.732Z,28.40
2022-10-17T05:38:53.624Z,28.44
2022-10-17T05:41:22.336Z,28.46
2022-10-17T05:43:51.253Z,28.49
2022-10-17T05:46:19.813Z,28.53
2022-10-17T05:48:48.120Z,28.56
2022-10-17T05:51:16.435Z,28.60
2022-10-17T05:53:44.838Z,28.63
2022-10-17T05:56:15.329Z,28.67
2022-10-17T05:58:51.600Z,28.74
2022-10-17T06:01:21.974Z,28.79
2022-10-17T06:03:50.346Z,28.81
2022-10-17T06:06:20.368Z,28.86
2022-10-17T06:08:48.733Z,28.91
2022-10-17T06:11:17.137Z,28.95
2022-10-17T06:13:45.452Z,28.97
2022-10-17T06:16:13.826Z,29.02
2022-10-17T06:18:42.206Z,29.02
2022-10-17T06:21:12.832Z,29.04
2022-10-17T06:23:41.207Z,29.05
2022-10-17T06:26:10.143Z,29.06
2022-10-17T06:28:38.651Z,29.07
2022-10-17T06:31:12.127Z,29.08
2022-10-17T06:33:41.081Z,29.09
2022-10-17T06:36:12.696Z,29.10
2022-10-17T06:38:41.689Z,29.09
2022-10-17T06:41:15.719Z,29.09
2022-10-17T06:43:48.158Z,29.11
2022-10-17T06:46:18.558Z,29.11
2022-10-17T06:48:46.955Z,29.12
2022-10-17T06:51:15.330Z,29.12
2022-10-17T06:53:43.675Z,29.13
2022-10-17T06:56:12.679Z,29.15
2022-10-17T06:58:41.990Z,29.17
2022-10-17T07:01:13.823Z,29.19
2022-10-17T07:03:42.716Z,29.21
2022-10-17T07:06:14.338Z,29.23
2022-10-17T07:08:51.578Z,29.25
2022-10-17T07:11:23.480Z,29.24
2022-10-17T07:13:51.877Z,29.22
2022-10-17T07:16:20.359Z,29.25
2022-10-17T07:18:51.970Z,29.23
2022-10-17T07:21:20.355Z,29.23
2022-10-17T07:23:48.719Z,29.23
2022-10-17T07:26:19.085Z,29.25
2022-10-17T07:28:49.018Z,29.24
2022-10-17T07:31:20.408Z,29.25
2022-10-17T07:33:49.132Z,29.25
2022-10-17T07:36:17.858Z,29.21
2022-10-17T07:38:46.308Z,29.21
2022-10-17T07:41:19.234Z,29.19
2022-10-17T07:43:50.186Z,29.17
2022-10-17T07:46:18.618Z,29.14
2022-10-17T07:48:47.110Z,29.16
2022-10-17T07:51:15.526Z,29.17
2022-10-17T07:53:48.688Z,29.14
2022-10-17T07:56:17.849Z,29.14
2022-10-17T07:58:59.858Z,29.15
2022-10-17T08:01:31.110Z,29.14
2022-10-17T08:03:59.693Z,29.14
2022-10-17T08:06:28.443Z,29.11
2022-10-17T08:08:58.820Z,29.10
2022-10-17T08:11:27.167Z,29.11
2022-10-17T08:13:55.702Z,29.08
2022-10-17T08:16:24.022Z,29.09
2022-10-17T08:18:52.494Z,29.08
2022-10-17T08:21:21.000Z,29.09
2022-10-17T08:23:49.391Z,29.09
2022-10-17T08:26:18.658Z,29.08
2022-10-17T08:28:47.899Z,29.07
2022-10-17T08:31:21.593Z,29.04
2022-10-17T08:33:51.559Z,29.02
2022-10-17T08:36:21.972Z,29.02
2022-10-17T08:38:52.841Z,29.01
2022-10-17T08:41:46.943Z,29.02
2022-10-17T08:44:43.861Z,29.00
2022-10-17T08:47:16.599Z,28.97
2022-10-17T08:49:48.847Z,28.96
2022-10-17T08:52:40.713Z,28.92
2022-10-17T08:55:20.929Z,28.90
2022-10-17T08:57:50.889Z,28.89
2022-10-17T09:00:22.175Z,28.88
2022-10-17T09:03:09.593Z,28.84
2022-10-17T09:05:44.239Z,28.85
2022-10-17T09:08:37.317Z,28.82
2022-10-17T09:11:28.300Z,28.80
2022-10-17T09:14:41.443Z,28.77
2022-10-17T09:17:35.881Z,28.72
2022-10-17T09:20:19.649Z,28.68
2022-10-17T09:23:02.339Z,28.66
2022-10-17T09:25:36.529Z,28.61
2022-10-17T09:28:38.488Z,28.56
2022-10-17T09:31:08.579Z,28.50
2022-10-17T09:33:53.944Z,28.45
2022-10-17T09:36:30.724Z,28.40
2022-10-17T09:39:03.101Z,28.35
2022-10-17T09:41:47.237Z,28.27
2022-10-17T09:44:23.541Z,28.22
2022-10-17T09:47:16.131Z,28.15
2022-10-17T09:49:47.590Z,28.08
2022-10-17T09:52:37.693Z,28.00
2022-10-17T09:55:18.458Z,27.94
2022-10-17T09:58:01.029Z,27.87
2022-10-17T10:00:39.261Z,27.80
2022-10-17T10:03:24.625Z,27.74
2022-10-17T10:06:08.880Z,27.66
2022-10-17T10:08:59.592Z,27.58
2022-10-17T10:11:51.636Z,27.51
2022-10-17T10:14:35.714Z,27.42
2022-10-17T10:17:06.900Z,27.35
2022-10-17T10:19:37.893Z,27.28
2022-10-17T10:22:20.544Z,27.21
2022-10-17T10:25:18.252Z,27.14
2022-10-17T10:27:48.565Z,27.07
2022-10-17T10:30:29.905Z,27.01
2022-10-17T10:33:01.603Z,26.95
2022-10-17T10:35:39.753Z,26.90
2022-10-17T10:38:19.383Z,26.82
2022-10-17T10:40:52.334Z,26.74
2022-10-17T10:43:41.137Z,26.67
2022-10-17T10:46:25.006Z,26.59
2022-10-17T10:49:02.081Z,26.51
2022-10-17T10:51:39.203Z,26.43
2022-10-17T10:54:14.370Z,26.34
2022-10-17T10:57:10.113Z,26.26
2022-10-17T10:59:53.003Z,26.15
2022-10-17T11:02:39.663Z,26.06
2022-10-17T11:05:42.653Z,25.95
2022-10-17T11:08:34.031Z,25.84
2022-10-17T11:11:24.745Z,25.75
2022-10-17T11:14:09.655Z,25.66
2022-10-17T11:17:11.461Z,25.57
2022-10-17T11:19:54.268Z,25.50
2022-10-17T11:22:32.627Z,25.44
2022-10-17T11:25:25.517Z,25.38
2022-10-17T11:27:53.872Z,25.32
2022-10-17T11:30:25.463Z,25.26
2022-10-17T11:33:06.589Z,25.21
2022-10-17T11:35:40.359Z,25.13
2022-10-17T11:38:11.402Z,25.08
2022-10-17T11:40:45.503Z,25.01
2022-10-17T11:43:23.774Z,24.95
2022-10-17T11:45:59.467Z,24.89
2022-10-17T11:48:38.561Z,24.85
2022-10-17T11:54:12.995Z,24.78
2022-10-17T11:57:10.756Z,24.75
2022-10-17T12:00:16.177Z,24.71
2022-10-17T12:02:52.250Z,24.67
2022-10-17T12:05:51.944Z,24.62
2022-10-17T12:08:32.611Z,24.58
2022-10-17T12:11:16.532Z,24.55
2022-10-17T12:13:48.618Z,24.51
2022-10-17T12:16:22.931Z,24.46
2022-10-17T12:19:13.487Z,24.42
2022-10-17T12:22:19.673Z,24.37
2022-10-17T12:25:03.383Z,24.31
2022-10-17T12:27:51.236Z,24.27
2022-10-17T12:30:29.577Z,24.21
2022-10-17T12:33:38.059Z,24.15
2022-10-17T12:36:18.720Z,24.11
2022-10-17T12:39:12.600Z,24.07
2022-10-17T12:41:40.926Z,24.02
2022-10-17T12:44:15.407Z,23.99
2022-10-17T12:47:05.484Z,23.97
2022-10-17T12:49:55.785Z,23.96
2022-10-17T12:52:36.093Z,23.94
2022-10-17T12:55:12.717Z,23.93
2022-10-17T12:57:56.589Z,23.91
2022-10-17T13:00:30.841Z,23.88
2022-10-17T13:03:12.507Z,23.86
2022-10-17T13:05:46.742Z,23.84
2022-10-17T13:08:32.007Z,23.81
2022-10-17T13:11:02.298Z,23.78
2022-10-17T13:13:50.601Z,23.76
2022-10-17T13:16:34.872Z,23.74
2022-10-17T13:19:15.426Z,23.74
2022-10-17T13:22:02.270Z,23.72
2022-10-17T13:24:35.198Z,23.72
2022-10-17T13:27:05.832Z,23.70
2022-10-17T13:29:35.260Z,23.68
2022-10-17T13:32:06.456Z,23.64
2022-10-17T13:34:35.986Z,23.61
2022-10-17T13:37:12.277Z,23.59
2022-10-17T13:39:55.182Z,23.56
2022-10-17T13:42:30.316Z,23.54
2022-10-17T13:45:01.040Z,23.51
2022-10-17T13:47:34.005Z,23.50
2022-10-17T13:50:02.662Z,23.48
2022-10-17T13:52:32.570Z,23.44
2022-10-17T13:55:17.909Z,23.43
2022-10-17T13:57:46.294Z,23.42
2022-10-17T14:00:23.892Z,23.41
2022-10-17T14:02:52.258Z,23.41
2022-10-17T14:05:24.655Z,23.41
2022-10-17T14:08:12.093Z,23.40
2022-10-17T14:10:43.105Z,23.38
2022-10-17T14:13:26.992Z,23.37
2022-10-17T14:15:58.500Z,23.35
2022-10-17T14:18:36.114Z,23.35
2022-10-17T14:24:24.653Z,23.33
2022-10-17T14:26:55.439Z,23.33
2022-10-17T14:29:51.366Z,23.32
2022-10-17T14:32:21.022Z,23.32
2022-10-17T14:35:00.695Z,23.30
2022-10-17T14:37:52.084Z,23.28
2022-10-17T14:40:24.423Z,23.25
2022-10-17T14:42:58.456Z,23.22
2022-10-17T14:45:31.685Z,23.19
2022-10-17T14:48:17.761Z,23.16
2022-10-17T14:51:07.248Z,23.12
2022-10-17T14:53:35.932Z,23.11
2022-10-17T14:56:21.489Z,23.10
2022-10-17T14:58:49.872Z,23.09
2022-10-17T15:01:18.252Z,23.08
2022-10-17T15:03:47.152Z,23.08
2022-10-17T15:06:30.353Z,23.06
2022-10-17T15:08:59.457Z,23.06
2022-10-17T15:11:28.199Z,23.05
2022-10-17T15:13:56.593Z,23.04
2022-10-17T15:16:27.741Z,23.03
2022-10-17T15:18:56.242Z,23.02
2022-10-17T15:21:39.244Z,23.01
2022-10-17T15:24:16.716Z,23.00
2022-10-17T15:26:45.116Z,22.99
2022-10-17T15:29:17.132Z,22.99
2022-10-17T15:31:45.601Z,22.97
2022-10-17T15:34:14.007Z,22.95
2022-10-17T15:36:44.295Z,22.95
2022-10-17T15:39:12.658Z,22.93
2022-10-17T15:41:41.230Z,22.90
2022-10-17T15:44:09.777Z,22.89
2022-10-17T15:46:42.359Z,22.87
2022-10-17T15:49:18.226Z,22.85
2022-10-17T15:51:50.303Z,22.83
2022-10-17T15:54:20.037Z,22.80
2022-10-17T15:56:55.099Z,22.79
2022-10-17T15:59:29.907Z,22.80
2022-10-17T16:01:58.340Z,22.79
2022-10-17T16:04:28.463Z,22.79
2022-10-17T16:06:56.784Z,22.78
2022-10-17T16:09:25.167Z,22.78
2022-10-17T16:11:53.600Z,22.78
2022-10-17T16:14:21.966Z,22.77
2022-10-17T16:16:50.291Z,22.75
2022-10-17T16:19:18.721Z,22.75
2022-10-17T16:21:47.079Z,22.72
2022-10-17T16:24:15.446Z,22.71
2022-10-17T16:26:43.883Z,22.69
2022-10-17T16:29:12.357Z,22.69
2022-10-17T16:31:46.333Z,22.67
2022-10-17T16:34:16.086Z,22.67
2022-10-17T16:36:44.702Z,22.64
2022-10-17T16:39:13.122Z,22.61
2022-10-17T16:41:41.616Z,22.59
2022-10-17T16:44:17.419Z,22.58
2022-10-17T16:46:45.920Z,22.56
2022-10-17T16:49:16.972Z,22.55
2022-10-17T16:51:45.642Z,22.55
2022-10-17T16:54:13.922Z,22.53
2022-10-17T16:56:43.095Z,22.53
2022-10-17T16:59:13.416Z,22.52
2022-10-17T17:01:41.792Z,22.52
2022-10-17T17:04:10.430Z,22.52
2022-10-17T17:06:38.982Z,22.51
2022-10-17T17:09:07.386Z,22.51
2022-10-17T17:11:36.050Z,22.50
2022-10-17T17:14:05.951Z,22.50
2022-10-17T17:16:36.084Z,22.49
2022-10-17T17:19:08.209Z,22.48
2022-10-17T17:21:36.870Z,22.47
2022-10-17T17:24:06.348Z,22.46
2022-10-17T17:26:39.959Z,22.44
2022-10-17T17:29:08.381Z,22.42
2022-10-17T17:31:37.415Z,22.40
2022-10-17T17:34:06.221Z,22.36
2022-10-17T17:36:38.200Z,22.34
2022-10-17T17:39:09.631Z,22.30
2022-10-17T17:41:38.029Z,22.27
2022-10-17T17:44:06.640Z,22.25
2022-10-17T17:46:35.053Z,22.22
2022-10-17T17:49:03.604Z,22.19
2022-10-17T17:51:31.952Z,22.18
2022-10-17T17:54:00.258Z,22.15
2022-10-17T17:56:30.952Z,22.15
2022-10-17T17:59:01.803Z,22.15
2022-10-17T18:01:33.081Z,22.16
2022-10-17T18:04:01.496Z,22.17
2022-10-17T18:06:30.347Z,22.17
2022-10-17T18:09:00.090Z,22.15
2022-10-17T18:11:29.509Z,22.14
2022-10-17T18:14:02.681Z,22.12
2022-10-17T18:16:32.903Z,22.10
2022-10-17T18:19:07.093Z,22.09
2022-10-17T18:21:36.831Z,22.07
2022-10-17T18:24:05.860Z,22.04
2022-10-17T18:26:34.445Z,22.03
2022-10-17T18:29:03.139Z,22.00
2022-10-17T18:31:36.459Z,21.99
2022-10-17T18:34:06.625Z,21.98
2022-10-17T18:36:36.443Z,21.96
2022-10-17T18:39:05.843Z,21.95
2022-10-17T18:41:34.959Z,21.94
2022-10-17T18:44:06.504Z,21.94
2022-10-17T18:46:41.409Z,21.92
2022-10-17T18:49:16.111Z,21.92
2022-10-17T18:51:44.521Z,21.93
2022-10-17T18:54:21.434Z,21.92
2022-10-17T18:56:55.022Z,21.90
2022-10-17T18:59:23.867Z,21.89
2022-10-17T19:01:52.382Z,21.87
2022-10-17T19:04:20.935Z,21.87
2022-10-17T19:06:49.478Z,21.86
2022-10-17T19:09:17.975Z,21.83
2022-10-17T19:11:46.408Z,21.82
2022-10-17T19:14:15.495Z,21.82
2022-10-17T19:16:48.574Z,21.80
2022-10-17T19:19:19.784Z,21.79
2022-10-17T19:21:48.518Z,21.79
2022-10-17T19:24:20.032Z,21.79
2022-10-17T19:26:54.460Z,21.76
2022-10-17T19:29:26.124Z,21.76
2022-10-17T19:34:24.230Z,21.73
2022-10-17T19:36:53.179Z,21.71
2022-10-17T19:39:24.238Z,21.71
2022-10-17T19:41:52.928Z,21.69
2022-10-17T19:44:21.234Z,21.68
2022-10-17T19:46:50.162Z,21.66
2022-10-17T19:49:19.002Z,21.65
2022-10-17T19:51:47.786Z,21.64
2022-10-17T19:54:19.243Z,21.64
2022-10-17T19:56:48.117Z,21.63
2022-10-17T19:59:17.946Z,21.62
2022-10-17T20:01:47.414Z,21.60
2022-10-17T20:04:16.144Z,21.58
2022-10-17T20:06:44.639Z,21.55
2022-10-17T20:09:16.890Z,21.53
2022-10-17T20:11:46.043Z,21.50
2022-10-17T20:14:14.375Z,21.49
2022-10-17T20:16:42.813Z,21.47
2022-10-17T20:19:13.373Z,21.44
2022-10-17T20:21:41.755Z,21.41
2022-10-17T20:24:13.590Z,21.39
2022-10-17T20:26:42.892Z,21.37
2022-10-17T20:29:16.223Z,21.34
2022-10-17T20:31:46.155Z,21.32
2022-10-17T20:34:16.350Z,21.28
2022-10-17T20:36:45.186Z,21.26
2022-10-17T20:39:15.214Z,21.25
2022-10-17T20:41:43.931Z,21.24
2022-10-17T20:44:13.013Z,21.22
2022-10-17T20:46:52.755Z,21.21
2022-10-17T20:49:28.950Z,21.20
2022-10-17T20:51:57.747Z,21.20
2022-10-17T20:54:26.433Z,21.19
2022-10-17T20:56:56.477Z,21.17
2022-10-17T20:59:26.769Z,21.16
2022-10-17T21:01:55.665Z,21.15
2022-10-17T21:07:12.486Z,21.14
2022-10-17T21:09:40.870Z,21.13
2022-10-17T21:12:09.269Z,21.12
2022-10-17T21:14:37.631Z,21.10
2022-10-17T21:17:06.145Z,21.09
2022-10-17T21:19:34.819Z,21.09
2022-10-17T21:22:03.292Z,21.08
2022-10-17T21:24:32.428Z,21.08
2022-10-17T21:27:00.828Z,21.08
2022-10-17T21:29:29.293Z,21.07
2022-10-17T21:31:57.780Z,21.06
2022-10-17T21:34:26.262Z,21.05
2022-10-17T21:36:54.822Z,21.02
2022-10-17T21:39:25.720Z,21.01
2022-10-17T21:41:54.371Z,21.01
2022-10-17T21:44:25.602Z,20.98
2022-10-17T21:46:54.975Z,20.96
2022-10-17T21:49:25.753Z,20.94
2022-10-17T21:51:55.238Z,20.93
2022-10-17T21:54:24.520Z,20.92
2022-10-17T21:56:53.533Z,20.91
2022-10-17T21:59:22.003Z,20.91
2022-10-17T22:01:50.441Z,20.89
2022-10-17T22:04:20.902Z,20.88
2022-10-17T22:06:52.112Z,20.88
2022-10-17T22:09:26.580Z,20.88
2022-10-17T22:11:57.646Z,20.87
2022-10-17T22:14:27.758Z,20.86
2022-10-17T22:16:57.146Z,20.87
2022-10-17T22:19:27.565Z,20.86
2022-10-17T22:21:56.765Z,20.84
2022-10-17T22:24:25.218Z,20.82
2022-10-17T22:26:53.809Z,20.80
2022-10-17T22:29:22.175Z,20.80
2022-10-17T22:31:50.765Z,20.77
2022-10-17T22:34:19.551Z,20.76
2022-10-17T22:36:49.795Z,20.75
2022-10-17T22:39:18.328Z,20.73
2022-10-17T22:41:46.698Z,20.71
2022-10-17T22:44:15.177Z,20.70
2022-10-17T22:46:43.582Z,20.70
2022-10-17T22:49:11.885Z,20.69
2022-10-17T22:51:40.277Z,20.68
2022-10-17T22:54:08.852Z,20.66
2022-10-17T22:56:37.217Z,20.65
2022-10-17T22:59:05.700Z,20.64
2022-10-17T23:01:34.093Z,20.64
2022-10-17T23:04:02.539Z,20.63
2022-10-17T23:06:30.933Z,20.62
2022-10-17T23:08:59.936Z,20.60
2022-10-17T23:11:28.270Z,20.59
2022-10-17T23:13:56.656Z,20.57
2022-10-17T23:16:25.057Z,20.60
2022-10-17T23:18:53.381Z,20.61
2022-10-17T23:21:21.706Z,20.62
2022-10-17T23:23:50.117Z,20.64
2022-10-17T23:26:18.493Z,20.65
2022-10-17T23:28:47.124Z,20.66
2022-10-17T23:31:16.382Z,20.66
2022-10-17T23:33:46.266Z,20.68
2022-10-17T23:36:17.138Z,20.70
2022-10-17T23:38:47.245Z,20.72
2022-10-17T23:41:16.466Z,20.73
2022-10-17T23:43:45.687Z,20.74
2022-10-17T23:46:14.623Z,20.76
2022-10-17T23:48:43.395Z,20.77
2022-10-17T23:51:12.508Z,20.80
2022-10-17T23:53:41.513Z,20.82
2022-10-17T23:56:12.236Z,20.85
2022-10-17T23:58:41.029Z,20.87
